This is the latest recevied weather packets stored in our database for station/object KO4DYK. If no packets are shown the sender has not sent any weather packets the latest 10 day(s).
| Time | Temp. | Humidity | Pressure | Rain* | Wind** | Luminosity | Snow |
|---|---|---|---|---|---|---|---|
| 1788301479 | 36.11° C | 49% | 1017.8 hPa | 0 mm | - | 69 W/m² | - |
| 1788301175 | 36.67° C | 48% | 1017.7 hPa | 0 mm | - | 90 W/m² | - |
| 1788300871 | 37.78° C | 47% | 1017.8 hPa | 0 mm | - | 112 W/m² | - |
| 1788300570 | 38.33° C | 45% | 1017.6 hPa | 0 mm | - | 280 W/m² | - |
| 1788300270 | 38.33° C | 44% | 1017.7 hPa | 0 mm | - | 324 W/m² | - |
| 1788299968 | 38.33° C | 44% | 1017.7 hPa | 0 mm | - | 356 W/m² | - |
| 1788299367 | 37.78° C | 45% | 1017.6 hPa | 0 mm | - | 355 W/m² | - |
| 1788299066 | 38.33° C | 44% | 1017.7 hPa | 0 mm | - | 379 W/m² | - |
| 1788298766 | 37.78° C | 44% | 1017.7 hPa | 0 mm | - | 368 W/m² | - |
| 1788298461 | 38.33° C | 44% | 1017.9 hPa | 0 mm | - | 196 W/m² | - |
| 1788298160 | 37.78° C | 45% | 1017.8 hPa | 0 mm | - | 414 W/m² | - |
| 1788297855 | 36.67° C | 47% | 1018 hPa | 0 mm | - | 410 W/m² | - |
| 1788297552 | 36.11° C | 49% | 1018.1 hPa | 0 mm | - | 185 W/m² | - |
| 1788297247 | 36.11° C | 49% | 1018 hPa | 0 mm | - | 400 W/m² | - |
| 1788296943 | 36.11° C | 50% | 1018.1 hPa | 0 mm | - | 117 W/m² | - |
| 1788296638 | 36.67° C | 49% | 1017.9 hPa | 0 mm | - | 112 W/m² | - |
| 1788296334 | 37.22° C | 48% | 1017.9 hPa | 0 mm | - | 148 W/m² | - |
| 1788296029 | 37.22° C | 48% | 1018 hPa | 0 mm | - | 165 W/m² | - |
| 1788295724 | 37.78° C | 47% | 1018 hPa | 0 mm | - | 181 W/m² | - |
| 1788295421 | 38.89° C | 44% | 1018.1 hPa | 0 mm | - | 560 W/m² | - |
| 1788295115 | 38.89° C | 44% | 1018.2 hPa | 0 mm | - | 556 W/m² | - |
| 1788294815 | 38.33° C | 44% | 1018.2 hPa | 0 mm | - | 576 W/m² | - |
| 1788294509 | 37.78° C | 45% | 1018.2 hPa | 0 mm | - | 586 W/m² | - |
| 1788294205 | 37.78° C | 46% | 1018.1 hPa | 0 mm | - | 588 W/m² | - |
| 1788293901 | 38.33° C | 50% | 1018.2 hPa | 0 mm | - | 564 W/m² | - |
* Rain latest hour (hover to see other rain measurements)
** Current wind speed in m/s (hover to see current wind gust speed)